Time;durP1;ratioP1;P1;durP2;ratioP2;P2;SDS_P1;SDS_P2;PMS_P1;PMS_P2;Temp;Humidity;BMP_temperature;BMP_pressure;BME280_temperature;BME280_humidity;BME280_pressure;Samples;Min_cycle;Max_cycle;Signal;HPM_P1;HPM_P2
2022/05/13 00:01:07;;;;;;;3.40;2.80;;;;;22.00;100717.00;;;;2069881;28;20226;-53
2022/05/13 00:02:08;;;;;;;3.30;2.60;;;;;22.00;100729.00;;;;2075118;28;20232;-55
2022/05/13 00:03:08;;;;;;;3.33;2.50;;;;;21.90;100725.00;;;;2078361;28;20361;-53
2022/05/13 00:04:09;;;;;;;3.37;2.50;;;;;21.90;100716.00;;;;2079007;28;20875;-54
2022/05/13 00:05:09;;;;;;;5.60;3.03;;;;;21.90;100718.00;;;;2078988;28;20258;-55
2022/05/13 00:06:09;;;;;;;4.53;2.50;;;;;21.90;100714.00;;;;2070578;28;20220;-53
2022/05/13 00:07:10;;;;;;;3.10;2.47;;;;;21.90;100709.00;;;;2070860;28;20221;-53
2022/05/13 00:08:10;;;;;;;3.10;2.53;;;;;21.90;100717.00;;;;2073371;28;20241;-53
2022/05/13 00:09:10;;;;;;;4.40;2.50;;;;;21.90;100713.00;;;;2078657;28;20213;-53
2022/05/13 00:10:11;;;;;;;3.60;2.57;;;;;21.90;100721.00;;;;2070228;28;20225;-54
2022/05/13 00:11:11;;;;;;;2.60;2.40;;;;;21.90;100716.00;;;;2065186;28;20280;-54
2022/05/13 00:12:12;;;;;;;6.07;2.47;;;;;21.90;100715.00;;;;2069666;28;20221;-54
2022/05/13 00:13:12;;;;;;;3.00;2.27;;;;;21.90;100716.00;;;;2070221;28;20265;-54
2022/05/13 00:14:12;;;;;;;2.80;2.43;;;;;21.90;100712.00;;;;2070561;28;20222;-54
2022/05/13 00:15:16;;;;;;;3.50;2.30;;;;;21.90;100713.00;;;;2070850;28;20297;-55
2022/05/13 00:16:16;;;;;;;3.63;2.67;;;;;21.90;100717.00;;;;2070306;28;20206;-56
2022/05/13 00:17:17;;;;;;;3.90;2.50;;;;;21.90;100717.00;;;;2070669;28;20744;-56
2022/05/13 00:18:17;;;;;;;3.10;2.07;;;;;21.90;100716.00;;;;2070672;28;20702;-55
2022/05/13 00:19:17;;;;;;;3.30;2.00;;;;;21.90;100724.00;;;;2070166;28;20222;-55
2022/05/13 00:20:18;;;;;;;3.40;1.90;;;;;21.90;100717.00;;;;2071016;28;20725;-53
2022/05/13 00:21:18;;;;;;;3.63;2.40;;;;;21.90;100717.00;;;;2072839;28;20690;-52
2022/05/13 00:22:19;;;;;;;2.83;2.20;;;;;21.90;100715.00;;;;2070595;28;20242;-54
2022/05/13 00:23:19;;;;;;;2.80;1.87;;;;;21.90;100715.00;;;;2072165;28;20693;-55
2022/05/13 00:24:19;;;;;;;2.70;2.13;;;;;21.90;100725.00;;;;2078704;28;20287;-54
2022/05/13 00:25:22;;;;;;;3.60;2.03;;;;;21.90;100726.00;;;;2077753;28;20249;-54
2022/05/13 00:26:23;;;;;;;3.65;2.05;;;;;21.90;100716.00;;;;2074188;28;20636;-55
2022/05/13 00:27:23;;;;;;;2.73;1.90;;;;;21.90;100721.00;;;;2070229;28;20210;-54
2022/05/13 00:28:23;;;;;;;2.60;1.90;;;;;21.90;100714.00;;;;2070152;28;20218;-54
2022/05/13 00:29:24;;;;;;;2.50;2.03;;;;;21.80;100722.00;;;;2069279;28;20229;-55
2022/05/13 00:30:25;;;;;;;3.07;2.17;;;;;21.90;100712.00;;;;2070035;28;20917;-55
2022/05/13 00:31:25;;;;;;;3.53;2.17;;;;;21.80;100717.00;;;;2070763;28;20221;-55
2022/05/13 00:32:25;;;;;;;2.87;1.97;;;;;21.90;100713.00;;;;2070381;28;20221;-54
2022/05/13 00:33:27;;;;;;;2.27;1.83;;;;;21.90;100718.00;;;;2070850;28;20221;-54
2022/05/13 00:34:27;;;;;;;3.45;1.90;;;;;21.90;100712.00;;;;2070441;28;20215;-53
2022/05/13 00:35:28;;;;;;;2.83;1.80;;;;;21.80;100709.00;;;;2075269;28;20298;-54
2022/05/13 00:36:28;;;;;;;3.83;1.67;;;;;21.80;100707.00;;;;2078196;28;20224;-53
2022/05/13 00:37:28;;;;;;;2.20;1.70;;;;;21.90;100709.00;;;;2077461;28;20311;-54
2022/05/13 00:38:29;;;;;;;3.40;2.10;;;;;21.80;100713.00;;;;2078727;28;20312;-55
2022/05/13 00:39:29;;;;;;;4.27;2.00;;;;;21.90;100702.00;;;;2077407;28;20214;-54
2022/05/13 00:40:29;;;;;;;2.83;1.80;;;;;21.90;100706.00;;;;2075938;28;20232;-55
2022/05/13 00:41:30;;;;;;;3.70;1.80;;;;;21.90;100701.00;;;;2078666;28;20218;-55
2022/05/13 00:42:30;;;;;;;3.90;2.80;;;;;21.90;100702.00;;;;2078724;28;20240;-54
2022/05/13 00:43:47;;;;;;;2.77;1.80;;;;;21.80;100709.00;;;;2078576;28;20701;-54
2022/05/13 00:44:48;;;;;;;2.50;1.85;;;;;21.90;100695.00;;;;2077495;28;20291;-55
2022/05/13 00:45:48;;;;;;;2.17;1.90;;;;;21.80;100690.00;;;;2071176;28;20653;-55
2022/05/13 00:46:48;;;;;;;2.40;1.80;;;;;21.80;100713.00;;;;2072663;28;20574;-55
2022/05/13 00:47:49;;;;;;;3.77;1.70;;;;;21.80;100692.00;;;;2078622;28;20741;-55
2022/05/13 00:48:49;;;;;;;3.07;1.87;;;;;21.80;100688.00;;;;2078536;28;20267;-55
2022/05/13 00:49:50;;;;;;;2.40;1.70;;;;;21.80;100688.00;;;;2077815;28;20230;-54
2022/05/13 00:50:50;;;;;;;3.13;1.30;;;;;21.80;100693.00;;;;2072806;28;20364;-54
2022/05/13 00:51:51;;;;;;;3.23;1.53;;;;;21.70;100690.00;;;;2061419;28;20227;-55
2022/05/13 00:52:51;;;;;;;2.87;1.90;;;;;21.80;100698.00;;;;2068393;28;20218;-55
2022/05/13 00:53:52;;;;;;;3.37;1.80;;;;;21.80;100697.00;;;;2069710;28;20222;-55
2022/05/13 00:54:53;;;;;;;3.10;1.80;;;;;21.80;100687.00;;;;2077894;28;20214;-54
2022/05/13 00:55:53;;;;;;;1.70;1.00;;;;;21.80;100690.00;;;;2072873;28;20221;-55
2022/05/13 00:56:53;;;;;;;1.70;1.50;;;;;21.80;100689.00;;;;2069947;28;20453;-56
2022/05/13 00:57:54;;;;;;;1.80;1.53;;;;;21.80;100687.00;;;;2072531;28;20523;-55
2022/05/13 00:58:56;;;;;;;3.43;1.33;;;;;21.80;100688.00;;;;2072739;28;20628;-55
2022/05/13 00:59:56;;;;;;;2.72;1.58;;;;;21.80;100693.00;;;;2074295;28;20251;-55
2022/05/13 01:00:56;;;;;;;2.30;1.50;;;;;21.80;100694.00;;;;2076721;28;20678;-53
2022/05/13 01:01:57;;;;;;;2.77;1.77;;;;;21.80;100691.00;;;;2077426;28;20363;-55
2022/05/13 01:02:57;;;;;;;3.10;1.50;;;;;21.90;100686.00;;;;2077679;28;20245;-54
2022/05/13 01:04:01;;;;;;;2.60;1.63;;;;;21.80;100679.00;;;;2077151;28;20217;-54
2022/05/13 01:05:05;;;;;;;1.90;1.55;;;;;21.80;100642.00;;;;2068989;28;20218;-55
2022/05/13 01:06:07;;;;;;;2.35;1.40;;;;;21.80;100695.00;;;;2067741;28;20222;-55
2022/05/13 01:07:16;;;;;;;2.85;1.55;;;;;21.80;100688.00;;;;2075265;28;20225;-55
2022/05/13 01:08:17;;;;;;;2.83;1.70;;;;;21.80;100698.00;;;;2073069;28;20756;-55
2022/05/13 01:09:19;;;;;;;3.60;1.52;;;;;21.80;100692.00;;;;2077107;28;20591;-56
2022/05/13 01:10:22;;;;;;;2.17;1.42;;;;;21.80;100689.00;;;;2076934;28;20781;-55
2022/05/13 01:11:25;;;;;;;2.10;1.35;;;;;21.70;100686.00;;;;2069975;28;20636;-54
2022/05/13 01:12:31;;;;;;;2.53;1.77;;;;;21.80;100690.00;;;;2072484;28;20260;-55
2022/05/13 01:13:31;;;;;;;2.50;1.35;;;;;21.80;100688.00;;;;2070690;28;20243;-55
2022/05/13 01:14:34;;;;;;;2.60;1.60;;;;;21.80;100690.00;;;;2077041;28;20251;-54
2022/05/13 01:15:37;;;;;;;1.70;1.25;;;;;21.80;100693.00;;;;2063756;28;20691;-55
2022/05/13 01:18:05;;;;;;;3.00;1.70;;;;;21.80;100695.00;;;;2071768;28;20206;-54
2022/05/13 01:19:05;;;;;;;4.35;1.55;;;;;21.80;100698.00;;;;2081140;28;20213;-54
2022/05/13 01:20:06;;;;;;;2.40;1.70;;;;;21.80;100695.00;;;;2076805;28;20213;-54
2022/05/13 01:21:08;;;;;;;3.53;1.60;;;;;21.80;100701.00;;;;2070350;28;20682;-55
2022/05/13 01:22:15;;;;;;;3.40;1.63;;;;;21.80;100695.00;;;;2074081;28;20228;-55
2022/05/13 01:23:17;;;;;;;2.53;1.55;;;;;21.80;100692.00;;;;2077567;28;20771;-54
2022/05/13 01:24:19;;;;;;;1.75;1.33;;;;;21.80;100690.00;;;;2077743;28;20710;-55
2022/05/13 01:25:21;;;;;;;2.35;1.65;;;;;21.80;100697.00;;;;2070778;28;20732;-55
2022/05/13 01:26:29;;;;;;;1.58;1.15;;;;;21.80;100693.00;;;;2065757;28;20220;-54
2022/05/13 01:27:29;;;;;;;2.05;1.50;;;;;21.80;100697.00;;;;2070275;28;20214;-55
2022/05/13 01:28:32;;;;;;;2.87;1.30;;;;;21.80;100696.00;;;;2078108;28;20954;-54
2022/05/13 01:29:32;;;;;;;3.20;1.75;;;;;21.80;100690.00;;;;2075170;28;20202;-54
2022/05/13 01:30:32;;;;;;;2.50;1.50;;;;;21.80;100690.00;;;;2071534;28;20209;-54
2022/05/13 01:31:34;;;;;;;1.80;1.60;;;;;21.80;100689.00;;;;2069570;28;20734;-55
2022/05/13 01:32:34;;;;;;;2.00;1.50;;;;;21.80;100689.00;;;;2070303;28;20206;-55
2022/05/13 01:33:35;;;;;;;3.23;1.47;;;;;21.70;100683.00;;;;2069831;28;20202;-55
2022/05/13 01:34:35;;;;;;;2.03;1.33;;;;;21.70;100685.00;;;;2072043;28;20202;-54
2022/05/13 01:35:43;;;;;;;1.60;1.27;;;;;21.70;100688.00;;;;2074879;28;20214;-54
2022/05/13 01:36:43;;;;;;;2.00;1.38;;;;;21.70;100675.00;;;;2075597;28;20289;-55
2022/05/13 01:37:43;;;;;;;2.10;1.23;;;;;21.70;100692.00;;;;2078676;28;20264;-54
2022/05/13 01:38:44;;;;;;;2.00;1.47;;;;;21.80;100689.00;;;;2078125;28;20201;-54
2022/05/13 01:39:44;;;;;;;2.10;1.40;;;;;21.80;100688.00;;;;2074625;28;20226;-54
2022/05/13 01:40:44;;;;;;;2.07;1.20;;;;;21.80;100687.00;;;;2077980;28;20296;-54
2022/05/13 01:41:46;;;;;;;3.20;1.73;;;;;21.80;100692.00;;;;2072689;28;20261;-55
2022/05/13 01:42:46;;;;;;;1.85;1.30;;;;;21.80;100694.00;;;;2069360;28;20730;-54
2022/05/13 01:43:47;;;;;;;2.53;1.20;;;;;21.80;100692.00;;;;2073741;28;20218;-55
2022/05/13 01:44:47;;;;;;;2.60;1.40;;;;;21.80;100692.00;;;;2077313;28;20241;-54
2022/05/13 01:45:48;;;;;;;1.97;1.43;;;;;21.70;100688.00;;;;2071829;28;20222;-54
2022/05/13 01:46:48;;;;;;;2.13;1.30;;;;;21.80;100690.00;;;;2070433;28;20664;-55
2022/05/13 01:47:48;;;;;;;2.47;1.33;;;;;21.80;100697.00;;;;2070365;28;20763;-54
2022/05/13 01:48:49;;;;;;;2.10;1.40;;;;;21.80;100697.00;;;;2071100;28;20681;-53
2022/05/13 01:49:49;;;;;;;3.03;1.40;;;;;21.80;100695.00;;;;2061158;28;20730;-55
2022/05/13 01:50:49;;;;;;;2.17;1.40;;;;;21.70;100694.00;;;;2054785;28;20242;-55
2022/05/13 01:51:50;;;;;;;2.60;1.43;;;;;21.70;100688.00;;;;2070474;28;20236;-55
2022/05/13 01:52:50;;;;;;;1.60;1.20;;;;;21.70;100685.00;;;;2078577;28;20248;-55
2022/05/13 01:53:51;;;;;;;1.53;1.00;;;;;21.70;100677.00;;;;2076961;28;20231;-54
2022/05/13 01:54:51;;;;;;;2.07;1.23;;;;;21.70;100681.00;;;;2069524;28;20249;-54
2022/05/13 01:55:52;;;;;;;1.97;1.30;;;;;21.70;100692.00;;;;2072257;28;20714;-54
2022/05/13 01:56:52;;;;;;;1.77;1.30;;;;;21.70;100680.00;;;;2070814;28;20690;-54
2022/05/13 01:57:52;;;;;;;1.80;1.13;;;;;21.70;100682.00;;;;2076855;28;21919;-54
2022/05/13 01:58:53;;;;;;;2.60;1.70;;;;;21.70;100682.00;;;;2078418;28;20282;-54
2022/05/13 01:59:54;;;;;;;1.77;1.30;;;;;21.70;100677.00;;;;2077825;28;20257;-55
2022/05/13 02:00:56;;;;;;;1.65;1.17;;;;;21.70;100673.00;;;;2074341;28;20213;-55
2022/05/13 02:01:56;;;;;;;1.80;1.40;;;;;21.70;100672.00;;;;2073563;28;20628;-55
2022/05/13 02:04:15;;;;;;;1.70;1.13;;;;;21.70;100678.00;;;;2078230;28;20213;-55
2022/05/13 02:05:15;;;;;;;1.57;1.10;;;;;21.70;100679.00;;;;2078500;28;20202;-54
2022/05/13 02:06:25;;;;;;;2.03;1.30;;;;;21.70;100668.00;;;;2078221;28;20209;-54
2022/05/13 02:07:27;;;;;;;2.55;1.35;;;;;21.70;100670.00;;;;2078216;28;20248;-54
2022/05/13 02:08:27;;;;;;;2.40;1.30;;;;;21.70;100669.00;;;;2076829;28;20682;-54
2022/05/13 02:09:28;;;;;;;2.63;1.30;;;;;21.70;100670.00;;;;2078194;28;20214;-54
2022/05/13 02:10:29;;;;;;;2.73;1.20;;;;;21.70;100664.00;;;;2076927;28;20217;-54
2022/05/13 02:11:29;;;;;;;1.63;1.50;;;;;21.70;100666.00;;;;2069976;28;20241;-55
2022/05/13 02:12:30;;;;;;;1.97;1.20;;;;;21.70;100674.00;;;;2069479;28;20214;-54
2022/05/13 02:13:31;;;;;;;1.90;1.20;;;;;21.70;100669.00;;;;2069581;28;20586;-55
2022/05/13 02:14:31;;;;;;;1.70;1.07;;;;;21.70;100661.00;;;;2069158;28;20214;-55
2022/05/13 02:15:32;;;;;;;2.13;1.30;;;;;21.70;100665.00;;;;2068999;28;20213;-53
2022/05/13 02:16:32;;;;;;;2.87;1.43;;;;;21.70;100667.00;;;;2070323;28;20210;-55
2022/05/13 02:17:32;;;;;;;3.10;1.47;;;;;21.70;100662.00;;;;2070143;28;20268;-53
2022/05/13 02:18:33;;;;;;;1.90;1.27;;;;;21.70;100660.00;;;;2077536;28;20221;-54
2022/05/13 02:19:34;;;;;;;1.63;1.13;;;;;21.70;100660.00;;;;2077603;28;20226;-53
2022/05/13 02:20:35;;;;;;;2.30;1.30;;;;;21.70;100661.00;;;;2077699;28;20225;-53
2022/05/13 02:21:35;;;;;;;2.47;1.53;;;;;21.70;100657.00;;;;2077809;28;20283;-54
2022/05/13 02:22:36;;;;;;;2.73;1.13;;;;;21.70;100665.00;;;;2076609;28;20210;-54
2022/05/13 02:23:36;;;;;;;1.60;1.27;;;;;21.70;100669.00;;;;2078169;28;20213;-53
2022/05/13 02:24:37;;;;;;;2.57;1.30;;;;;21.70;100675.00;;;;2078396;28;20237;-53
2022/05/13 02:25:37;;;;;;;2.00;1.03;;;;;21.70;100668.00;;;;2078108;28;20523;-54
2022/05/13 02:26:38;;;;;;;2.63;1.50;;;;;21.70;100666.00;;;;2069643;28;20511;-58
2022/05/13 02:27:38;;;;;;;2.70;1.23;;;;;21.70;100677.00;;;;2070548;28;20210;-53
2022/05/13 02:28:38;;;;;;;2.90;1.07;;;;;21.70;100677.00;;;;2071558;28;20244;-55
2022/05/13 02:29:39;;;;;;;2.30;1.50;;;;;21.60;100674.00;;;;2071486;28;20280;-53
2022/05/13 02:30:39;;;;;;;3.23;1.30;;;;;21.60;100675.00;;;;2071339;28;20217;-53
2022/05/13 02:31:39;;;;;;;2.30;1.50;;;;;21.60;100678.00;;;;2070997;28;20305;-54
2022/05/13 02:32:40;;;;;;;1.80;1.20;;;;;21.60;100679.00;;;;2071748;28;20229;-54
2022/05/13 02:33:41;;;;;;;1.67;1.00;;;;;21.60;100678.00;;;;2071482;28;20218;-53
2022/05/13 02:34:41;;;;;;;2.30;1.30;;;;;21.70;100683.00;;;;2071618;28;20210;-54
2022/05/13 02:35:41;;;;;;;2.70;1.37;;;;;21.70;100686.00;;;;2071404;28;20534;-54
2022/05/13 02:36:42;;;;;;;3.10;1.20;;;;;21.60;100679.00;;;;2071557;28;20737;-54
2022/05/13 02:37:42;;;;;;;4.70;1.83;;;;;21.70;100678.00;;;;2071485;28;20710;-54
2022/05/13 02:38:42;;;;;;;2.60;1.40;;;;;21.60;100679.00;;;;2070821;28;20274;-54
2022/05/13 02:39:43;;;;;;;2.10;1.30;;;;;21.70;100680.00;;;;2071439;28;20645;-54
2022/05/13 02:42:03;;;;;;;2.10;1.20;;;;;21.70;100679.00;;;;2078776;28;20217;-54
2022/05/13 02:43:03;;;;;;;2.20;1.00;;;;;21.60;100686.00;;;;2078502;28;20217;-54
2022/05/13 02:44:04;;;;;;;2.27;1.20;;;;;21.60;100683.00;;;;2078218;28;20205;-53
2022/05/13 02:45:08;;;;;;;1.60;1.20;;;;;21.60;100681.00;;;;2077410;28;20625;-53
2022/05/13 02:46:08;;;;;;;2.05;1.38;;;;;21.60;100685.00;;;;2077515;28;20844;-53
2022/05/13 02:47:08;;;;;;;3.27;1.30;;;;;21.70;100687.00;;;;2078531;28;20283;-54
2022/05/13 02:48:09;;;;;;;2.63;1.10;;;;;21.70;100683.00;;;;2078121;28;20585;-53
2022/05/13 02:49:09;;;;;;;2.43;1.20;;;;;21.60;100693.00;;;;2078654;28;20558;-54
2022/05/13 02:50:18;;;;;;;1.80;1.17;;;;;21.60;100685.00;;;;2078839;28;20225;-53
2022/05/13 02:51:19;;;;;;;2.17;1.25;;;;;21.70;100684.00;;;;2078334;28;20753;-53
2022/05/13 02:52:19;;;;;;;3.00;1.23;;;;;21.70;100690.00;;;;2077310;28;20249;-54
2022/05/13 02:53:20;;;;;;;2.80;1.30;;;;;21.60;100689.00;;;;2078637;28;20233;-53
2022/05/13 02:54:21;;;;;;;2.80;1.30;;;;;21.60;100692.00;;;;2079424;28;20228;-54
2022/05/13 02:55:21;;;;;;;3.20;1.33;;;;;21.60;100689.00;;;;2079140;28;20214;-53
2022/05/13 02:56:21;;;;;;;2.43;1.20;;;;;21.60;100690.00;;;;2079161;28;20205;-53
2022/05/13 02:57:22;;;;;;;3.13;1.53;;;;;21.60;100692.00;;;;2079562;28;20210;-54
2022/05/13 02:58:22;;;;;;;1.80;1.17;;;;;21.60;100692.00;;;;2079718;28;20824;-54
2022/05/13 02:59:22;;;;;;;2.97;1.40;;;;;21.60;100683.00;;;;2079515;28;20228;-53
2022/05/13 03:00:23;;;;;;;3.23;1.43;;;;;21.60;100684.00;;;;2077982;28;20748;-53
2022/05/13 03:01:23;;;;;;;2.30;1.47;;;;;21.60;100692.00;;;;2065551;28;20700;-53
2022/05/13 03:02:23;;;;;;;2.70;1.40;;;;;21.60;100697.00;;;;2070311;28;20212;-54
2022/05/13 03:03:24;;;;;;;3.30;1.70;;;;;21.60;100691.00;;;;2070930;28;20210;-53
2022/05/13 03:04:24;;;;;;;1.67;1.10;;;;;21.60;100693.00;;;;2071437;28;20211;-53
2022/05/13 03:05:24;;;;;;;1.63;1.23;;;;;21.60;100700.00;;;;2070851;28;20283;-53
2022/05/13 03:06:25;;;;;;;2.50;1.40;;;;;21.60;100695.00;;;;2071266;28;20202;-54
2022/05/13 03:07:25;;;;;;;2.73;1.50;;;;;21.60;100693.00;;;;2069334;28;20202;-53
2022/05/13 03:08:25;;;;;;;3.50;1.40;;;;;21.60;100691.00;;;;2070823;28;20229;-53
2022/05/13 03:09:26;;;;;;;3.67;1.17;;;;;21.70;100699.00;;;;2071342;28;20214;-55
2022/05/13 03:10:30;;;;;;;2.00;1.07;;;;;21.60;100706.00;;;;2071638;28;20213;-54
2022/05/13 03:11:31;;;;;;;1.75;1.20;;;;;21.60;100697.00;;;;2071056;28;20305;-55
2022/05/13 03:12:32;;;;;;;4.00;1.37;;;;;21.60;100699.00;;;;2070796;28;20217;-54
2022/05/13 03:13:32;;;;;;;2.80;1.60;;;;;21.60;100704.00;;;;2070996;28;20233;-53
2022/05/13 03:14:32;;;;;;;2.27;1.57;;;;;21.60;100696.00;;;;2071577;28;20458;-55
2022/05/13 03:15:33;;;;;;;2.70;1.50;;;;;21.60;100693.00;;;;2070962;28;20206;-54
2022/05/13 03:16:33;;;;;;;2.27;1.20;;;;;21.50;100682.00;;;;2071472;28;20210;-55
2022/05/13 03:17:34;;;;;;;2.63;1.33;;;;;21.60;100686.00;;;;2071211;28;20241;-54
2022/05/13 03:18:36;;;;;;;2.45;1.30;;;;;21.60;100693.00;;;;2071161;28;20279;-54
2022/05/13 03:19:36;;;;;;;1.75;1.20;;;;;21.50;100681.00;;;;2070773;28;20261;-54
2022/05/13 03:20:37;;;;;;;2.37;1.47;;;;;21.50;100688.00;;;;2071605;28;20280;-54
2022/05/13 03:21:37;;;;;;;3.50;1.40;;;;;21.50;100686.00;;;;2071105;28;20222;-54
2022/05/13 03:22:38;;;;;;;3.50;1.50;;;;;21.60;100685.00;;;;2070836;28;20276;-54
2022/05/13 03:23:42;;;;;;;2.33;1.30;;;;;21.60;100679.00;;;;2070539;28;20241;-53
2022/05/13 03:24:42;;;;;;;2.85;1.40;;;;;21.50;100682.00;;;;2075267;28;20675;-54
2022/05/13 03:25:43;;;;;;;2.70;1.50;;;;;21.40;100673.00;;;;2078839;28;20213;-53
2022/05/13 03:26:43;;;;;;;2.27;1.40;;;;;21.60;100676.00;;;;2079531;28;20224;-54
2022/05/13 03:27:44;;;;;;;2.63;1.17;;;;;21.60;100675.00;;;;2078988;28;20214;-55
2022/05/13 03:28:44;;;;;;;1.87;1.40;;;;;21.60;100676.00;;;;2078547;28;20221;-55
2022/05/13 03:29:44;;;;;;;3.20;1.33;;;;;21.50;100676.00;;;;2066316;28;20218;-54
2022/05/13 03:30:45;;;;;;;1.87;1.20;;;;;21.50;100681.00;;;;2070710;28;20284;-54
2022/05/13 03:31:45;;;;;;;3.47;1.33;;;;;21.50;100675.00;;;;2070836;28;20244;-54
2022/05/13 03:32:45;;;;;;;2.63;1.20;;;;;21.50;100674.00;;;;2070621;28;20230;-54
2022/05/13 03:33:46;;;;;;;4.50;1.60;;;;;21.60;100670.00;;;;2071570;28;20264;-55
2022/05/13 03:34:46;;;;;;;2.73;1.20;;;;;21.60;100677.00;;;;2071772;28;20215;-55
2022/05/13 03:35:46;;;;;;;3.90;1.57;;;;;21.50;100673.00;;;;2064844;28;20229;-54
2022/05/13 03:36:49;;;;;;;2.93;1.40;;;;;21.50;100676.00;;;;2070559;28;20234;-54
2022/05/13 03:37:49;;;;;;;2.38;1.55;;;;;21.50;100684.00;;;;2068149;28;20364;-53
2022/05/13 03:38:50;;;;;;;1.90;1.33;;;;;21.50;100679.00;;;;2071084;28;20630;-53
2022/05/13 03:39:50;;;;;;;2.87;1.40;;;;;21.50;100678.00;;;;2069920;28;20223;-54
2022/05/13 03:40:50;;;;;;;2.67;1.20;;;;;21.50;100680.00;;;;2069823;28;20225;-55
2022/05/13 03:41:51;;;;;;;2.00;1.20;;;;;21.50;100685.00;;;;2070527;28;20224;-54
2022/05/13 03:42:51;;;;;;;3.90;1.43;;;;;21.60;100688.00;;;;2068840;28;20249;-53
2022/05/13 03:43:52;;;;;;;3.27;1.50;;;;;21.50;100691.00;;;;2070069;28;20225;-54
2022/05/13 03:44:52;;;;;;;4.43;1.40;;;;;21.60;100690.00;;;;2077461;28;20229;-55
2022/05/13 03:45:52;;;;;;;3.00;1.37;;;;;21.60;100687.00;;;;2075252;28;20213;-55
2022/05/13 03:46:53;;;;;;;2.10;1.00;;;;;21.60;100686.00;;;;2079381;28;20799;-55
2022/05/13 03:47:53;;;;;;;3.03;1.20;;;;;21.60;100672.00;;;;2079318;28;20672;-54
2022/05/13 03:48:55;;;;;;;2.03;1.20;;;;;21.50;100688.00;;;;2079819;28;20563;-54
2022/05/13 03:49:56;;;;;;;2.55;1.35;;;;;21.50;100684.00;;;;2078212;28;20210;-54
2022/05/13 03:50:56;;;;;;;3.07;1.53;;;;;21.50;100687.00;;;;2079607;28;20312;-53
2022/05/13 03:51:56;;;;;;;2.60;1.40;;;;;21.50;100691.00;;;;2079165;28;20213;-54
2022/05/13 03:52:57;;;;;;;2.57;1.30;;;;;21.50;100693.00;;;;2079342;28;20271;-54
2022/05/13 03:53:58;;;;;;;3.10;1.37;;;;;21.50;100692.00;;;;2079619;28;20218;-55
2022/05/13 03:54:58;;;;;;;3.50;1.33;;;;;21.50;100685.00;;;;2079874;28;20218;-54
2022/05/13 03:55:58;;;;;;;1.73;1.20;;;;;21.50;100693.00;;;;2079233;28;20213;-54
2022/05/13 03:56:59;;;;;;;3.20;1.33;;;;;21.50;100682.00;;;;2078939;28;20260;-54
2022/05/13 03:57:59;;;;;;;1.93;1.37;;;;;21.50;100679.00;;;;2078076;28;20264;-54
2022/05/13 03:58:59;;;;;;;2.50;1.40;;;;;21.50;100684.00;;;;2079268;28;20356;-53
2022/05/13 04:00:00;;;;;;;2.10;1.13;;;;;21.50;100682.00;;;;2079099;28;20284;-53
2022/05/13 04:01:02;;;;;;;2.20;1.33;;;;;21.50;100687.00;;;;2078840;28;20732;-55
2022/05/13 04:02:02;;;;;;;3.03;1.70;;;;;21.50;100688.00;;;;2078247;28;20221;-55
2022/05/13 04:03:03;;;;;;;2.50;1.53;;;;;21.50;100690.00;;;;2077807;28;20213;-53
2022/05/13 04:04:03;;;;;;;1.83;1.03;;;;;21.50;100690.00;;;;2077892;28;20289;-54
2022/05/13 04:09:04;;;;;;;2.15;1.13;;;;;21.50;100684.00;;;;2078354;28;20217;-54
2022/05/13 04:10:05;;;;;;;2.58;1.00;;;;;21.50;100663.00;;;;2078596;28;20229;-54
2022/05/13 04:11:06;;;;;;;1.83;1.10;;;;;21.50;100691.00;;;;2078119;28;20227;-54
2022/05/13 04:16:06;;;;;;;1.50;1.20;;;;;21.50;100688.00;;;;2073995;28;20210;-53
2022/05/13 04:17:06;;;;;;;2.28;1.20;;;;;21.50;100692.00;;;;2070748;28;20341;-54
2022/05/13 04:18:07;;;;;;;2.83;1.20;;;;;21.50;100701.00;;;;2071170;28;20234;-55
2022/05/13 04:19:07;;;;;;;1.80;1.30;;;;;21.50;100685.00;;;;2078896;28;20376;-54
2022/05/13 04:20:08;;;;;;;2.97;1.13;;;;;21.50;100696.00;;;;2078907;28;20217;-54
2022/05/13 04:21:11;;;;;;;2.63;1.17;;;;;21.40;100697.00;;;;2079001;28;20213;-54
2022/05/13 04:22:13;;;;;;;3.72;1.75;;;;;21.50;100703.00;;;;2079408;28;20594;-53
2022/05/13 04:23:14;;;;;;;2.40;1.30;;;;;21.50;100688.00;;;;2079194;28;20578;-55
2022/05/13 04:24:17;;;;;;;2.83;1.77;;;;;21.50;100701.00;;;;2073743;28;20218;-54
2022/05/13 04:25:19;;;;;;;2.15;1.38;;;;;21.50;100694.00;;;;2071417;28;21738;-52
2022/05/13 04:26:19;;;;;;;2.92;1.10;;;;;21.40;100704.00;;;;2070458;28;20218;-53
2022/05/13 04:27:20;;;;;;;2.70;1.10;;;;;21.40;100696.00;;;;2067229;28;20237;-53
2022/05/13 04:28:20;;;;;;;1.97;1.30;;;;;21.50;100697.00;;;;2070754;28;20214;-53
2022/05/13 04:29:20;;;;;;;2.93;1.30;;;;;21.50;100694.00;;;;2070593;28;20224;-53
2022/05/13 04:30:21;;;;;;;2.23;1.20;;;;;21.40;100697.00;;;;2067753;28;20217;-53
2022/05/13 04:31:27;;;;;;;2.27;1.30;;;;;21.50;100699.00;;;;2070654;28;20297;-54
2022/05/13 04:32:27;;;;;;;3.58;1.23;;;;;21.50;100698.00;;;;2070462;28;20217;-53
2022/05/13 04:33:27;;;;;;;2.67;1.17;;;;;21.50;100699.00;;;;2069884;28;20866;-53
2022/05/13 04:34:29;;;;;;;2.90;1.10;;;;;21.50;100707.00;;;;2070761;28;20220;-54
2022/05/13 04:35:29;;;;;;;2.95;1.10;;;;;21.50;100701.00;;;;2070145;28;20264;-54
2022/05/13 04:36:30;;;;;;;2.17;1.10;;;;;21.40;100704.00;;;;2070848;28;20598;-53
2022/05/13 04:37:30;;;;;;;2.20;1.30;;;;;21.50;100707.00;;;;2070450;28;20416;-54
2022/05/13 04:38:30;;;;;;;1.67;0.90;;;;;21.50;100704.00;;;;2070775;28;20614;-54
2022/05/13 04:39:31;;;;;;;1.70;1.03;;;;;21.40;100705.00;;;;2070732;28;20657;-55
2022/05/13 04:40:31;;;;;;;3.57;1.30;;;;;21.50;100694.00;;;;2070002;28;20268;-55
2022/05/13 04:42:50;;;;;;;2.20;1.42;;;;;21.40;100709.00;;;;2077574;28;20209;-53
2022/05/13 04:43:50;;;;;;;5.90;1.30;;;;;21.40;100704.00;;;;2077926;28;20575;-52
2022/05/13 04:44:51;;;;;;;2.80;1.53;;;;;21.40;100699.00;;;;2078408;28;20701;-54
2022/05/13 04:45:51;;;;;;;2.70;1.30;;;;;21.40;100702.00;;;;2078580;28;20228;-54
2022/05/13 04:46:52;;;;;;;8.53;1.63;;;;;21.50;100703.00;;;;2078816;28;20319;-55
2022/05/13 04:48:16;;;;;;;1.63;1.10;;;;;21.50;100704.00;;;;2078486;28;20217;-55
2022/05/13 04:49:16;;;;;;;2.92;1.30;;;;;21.60;100708.00;;;;2080448;28;20209;-55
2022/05/13 04:50:17;;;;;;;6.10;1.47;;;;;21.60;100709.00;;;;2078700;28;20220;-55
2022/05/13 04:51:17;;;;;;;1.90;1.00;;;;;21.60;100701.00;;;;2072832;28;20213;-53
2022/05/13 04:52:18;;;;;;;4.67;1.67;;;;;21.70;100705.00;;;;2070760;28;20248;-53
2022/05/13 04:53:23;;;;;;;1.90;1.00;;;;;21.70;100706.00;;;;2070066;28;20221;-54
2022/05/13 04:54:23;;;;;;;3.15;1.05;;;;;21.70;100699.00;;;;2070148;28;20252;-55
2022/05/13 04:55:25;;;;;;;1.83;1.07;;;;;21.70;100704.00;;;;2070320;28;20218;-53
2022/05/13 04:56:26;;;;;;;3.22;1.10;;;;;21.80;100714.00;;;;2070735;28;20207;-56
2022/05/13 04:57:26;;;;;;;2.45;1.02;;;;;21.80;100710.00;;;;2074949;28;20205;-55
2022/05/13 04:58:27;;;;;;;2.70;1.10;;;;;21.80;100710.00;;;;2078253;28;20288;-55
2022/05/13 04:59:27;;;;;;;2.60;1.10;;;;;21.80;100705.00;;;;2077785;28;20209;-54
2022/05/13 05:00:28;;;;;;;2.50;1.17;;;;;21.70;100706.00;;;;2069848;28;20213;-54
2022/05/13 05:01:28;;;;;;;3.03;1.23;;;;;21.70;100709.00;;;;2069439;28;20221;-54
2022/05/13 05:02:28;;;;;;;2.33;1.37;;;;;21.70;100722.00;;;;2070060;28;20206;-55
2022/05/13 05:03:29;;;;;;;4.53;1.20;;;;;21.70;100714.00;;;;2078124;28;20210;-55
2022/05/13 05:04:29;;;;;;;2.73;0.90;;;;;21.70;100719.00;;;;2077583;28;20233;-55
2022/05/13 05:05:29;;;;;;;2.80;1.47;;;;;21.70;100713.00;;;;2069012;28;20245;-55
2022/05/13 05:06:30;;;;;;;2.20;1.03;;;;;21.70;100715.00;;;;2078181;28;20217;-54
2022/05/13 05:07:30;;;;;;;2.20;1.17;;;;;21.70;100728.00;;;;2076535;28;20561;-54
2022/05/13 05:08:30;;;;;;;3.23;1.33;;;;;21.70;100723.00;;;;2070497;28;20270;-55
2022/05/13 05:09:31;;;;;;;2.00;1.07;;;;;21.70;100723.00;;;;2070462;28;20289;-55
2022/05/13 05:10:31;;;;;;;2.90;1.40;;;;;21.70;100723.00;;;;2075093;28;20209;-55
2022/05/13 05:11:32;;;;;;;3.17;1.20;;;;;21.70;100713.00;;;;2076329;28;20209;-55
2022/05/13 05:12:32;;;;;;;4.87;1.60;;;;;21.80;100718.00;;;;2070549;28;20214;-55
2022/05/13 05:13:37;;;;;;;2.33;1.30;;;;;21.70;100729.00;;;;2070119;28;20542;-55
2022/05/13 05:14:38;;;;;;;2.58;1.30;;;;;21.70;100732.00;;;;2075182;28;20329;-53
2022/05/13 05:15:39;;;;;;;3.23;1.37;;;;;21.70;100731.00;;;;2077614;28;20216;-55